Time;durP1;ratioP1;P1;durP2;ratioP2;P2;SDS_P1;SDS_P2;PMS_P1;PMS_P2;Temp;Humidity;BMP_temperature;BMP_pressure;BME280_temperature;BME280_humidity;BME280_pressure;Samples;Min_cycle;Max_cycle;Signal;HPM_P1;HPM_P2
2022/05/29 00:00:21;;;;;;;6.35;2.85;;;6.60;99.90;;;;;;5024654;28;20083;-85
2022/05/29 00:02:48;;;;;;;5.00;2.83;;;6.40;99.90;;;;;;5032465;28;20021;-85
2022/05/29 00:05:14;;;;;;;6.93;3.30;;;6.40;99.90;;;;;;5038475;28;20040;-85
2022/05/29 00:07:42;;;;;;;6.97;3.22;;;6.40;99.90;;;;;;5042024;28;20030;-86
2022/05/29 00:10:10;;;;;;;3.58;2.78;;;6.40;99.90;;;;;;5038793;28;20140;-85
2022/05/29 00:12:36;;;;;;;6.68;3.90;;;6.40;99.90;;;;;;5069319;28;20547;-85
2022/05/29 00:15:03;;;;;;;5.68;3.28;;;6.40;99.90;;;;;;5038283;28;20037;-85
2022/05/29 00:17:28;;;;;;;5.93;3.03;;;6.40;99.90;;;;;;5035109;28;20034;-85
2022/05/29 00:19:54;;;;;;;4.88;2.90;;;6.30;99.90;;;;;;5035449;28;20098;-85
2022/05/29 00:22:21;;;;;;;4.03;2.38;;;6.30;99.90;;;;;;5027837;28;20770;-85
2022/05/29 00:24:49;;;;;;;5.30;3.08;;;6.30;99.90;;;;;;5036858;28;20021;-85
2022/05/29 00:27:16;;;;;;;7.15;3.72;;;6.20;99.90;;;;;;5031586;28;20028;-85
2022/05/29 00:29:43;;;;;;;6.25;2.92;;;6.10;99.90;;;;;;5033247;28;20048;-86
2022/05/29 00:32:10;;;;;;;3.90;2.90;;;6.20;99.90;;;;;;5031780;28;20504;-85
2022/05/29 00:34:36;;;;;;;5.53;2.90;;;6.20;99.90;;;;;;5023492;28;20033;-85
2022/05/29 00:37:05;;;;;;;4.82;2.92;;;6.10;99.90;;;;;;5041976;28;20074;-85
2022/05/29 00:39:31;;;;;;;5.63;3.00;;;6.10;99.90;;;;;;5038038;28;20029;-86
2022/05/29 00:41:57;;;;;;;5.05;3.15;;;6.10;99.90;;;;;;5038815;28;20029;-86
2022/05/29 00:44:28;;;;;;;7.97;3.13;;;6.20;99.90;;;;;;5017609;28;20030;-85
2022/05/29 00:47:00;;;;;;;5.88;3.10;;;6.20;99.90;;;;;;5032459;28;20029;-86
2022/05/29 00:49:31;;;;;;;4.43;3.08;;;6.20;99.90;;;;;;5034191;28;20029;-86
2022/05/29 00:52:18;;;;;;;5.63;2.92;;;6.40;99.90;;;;;;5029557;28;20026;-86
2022/05/29 00:54:49;;;;;;;4.72;2.83;;;6.50;99.90;;;;;;5032690;28;20029;-85
2022/05/29 00:57:19;;;;;;;9.30;3.20;;;6.60;99.90;;;;;;5029457;28;20017;-90
2022/05/29 00:59:46;;;;;;;4.75;2.83;;;6.60;99.90;;;;;;5025327;28;20684;-85
2022/05/29 01:02:11;;;;;;;5.75;3.10;;;6.70;99.90;;;;;;5036339;28;20038;-85
2022/05/29 01:04:39;;;;;;;7.75;3.15;;;6.80;99.90;;;;;;5038719;28;20029;-85
2022/05/29 01:07:08;;;;;;;5.20;2.72;;;6.80;99.90;;;;;;5039665;28;20033;-86
2022/05/29 01:09:36;;;;;;;5.70;3.20;;;6.80;99.90;;;;;;5040612;28;20063;-85
2022/05/29 01:12:20;;;;;;;4.68;2.95;;;6.80;99.90;;;;;;5042083;28;20045;-85
2022/05/29 01:15:07;;;;;;;4.45;2.72;;;6.90;99.90;;;;;;5040558;28;20550;-85
2022/05/29 01:18:02;;;;;;;5.07;3.15;;;6.80;99.90;;;;;;5035313;28;20497;-84
2022/05/29 01:20:56;;;;;;;4.15;3.10;;;6.80;99.90;;;;;;5037108;28;20070;-87
2022/05/29 01:24:08;;;;;;;3.67;2.83;;;6.80;99.90;;;;;;5036340;28;20045;-85
2022/05/29 01:27:16;;;;;;;10.55;3.33;;;6.70;99.90;;;;;;5029946;28;20030;-84
2022/05/29 01:30:04;;;;;;;4.63;2.38;;;6.60;99.90;;;;;;5013124;28;20037;-85
2022/05/29 01:32:33;;;;;;;5.03;3.10;;;6.60;99.90;;;;;;5040586;28;20083;-88
2022/05/29 01:35:10;;;;;;;6.53;2.55;;;6.50;99.90;;;;;;5041845;28;20104;-84
2022/05/29 01:37:51;;;;;;;4.63;2.60;;;6.50;99.90;;;;;;5041222;28;20026;-84
2022/05/29 01:40:28;;;;;;;3.80;2.60;;;6.50;99.90;;;;;;5041489;28;20098;-85
2022/05/29 01:43:04;;;;;;;5.07;2.45;;;6.40;99.90;;;;;;5047428;28;20407;-85
2022/05/29 01:45:57;;;;;;;3.13;2.42;;;6.30;99.90;;;;;;5039881;28;20156;-84
2022/05/29 01:48:49;;;;;;;4.32;2.80;;;6.30;99.90;;;;;;5032372;28;20017;-84
2022/05/29 01:51:24;;;;;;;5.20;2.67;;;6.20;99.90;;;;;;5073036;28;20033;-84
2022/05/29 01:54:12;;;;;;;4.65;3.10;;;6.20;99.90;;;;;;5016450;28;20053;-83
2022/05/29 01:56:44;;;;;;;4.78;3.00;;;6.20;99.90;;;;;;5031811;28;20100;-84
2022/05/29 01:59:35;;;;;;;5.57;2.97;;;6.10;99.90;;;;;;5030999;28;20072;-90
2022/05/29 02:02:06;;;;;;;4.50;3.42;;;6.10;99.90;;;;;;5031342;28;20040;-84
2022/05/29 02:04:37;;;;;;;9.35;3.33;;;6.10;99.90;;;;;;5041721;28;20032;-84
2022/05/29 02:10:19;;;;;;;4.35;2.60;;;5.80;99.90;;;;;;5043689;28;20080;-84
2022/05/29 02:12:48;;;;;;;;;;;5.90;99.90;;;;;;5039831;28;20511;-85
2022/05/29 02:15:19;;;;;;;5.50;2.90;;;5.90;99.90;;;;;;5040037;28;19917;-85
2022/05/29 02:17:50;;;;;;;4.10;3.47;;;5.90;99.90;;;;;;5035267;28;20099;-84
2022/05/29 02:20:40;;;;;;;4.30;3.00;;;5.80;99.90;;;;;;5038541;28;20029;-84
2022/05/29 02:23:20;;;;;;;6.03;4.13;;;5.80;99.90;;;;;;5037561;28;20029;-85
2022/05/29 02:25:46;;;;;;;4.38;2.78;;;5.70;99.90;;;;;;5032147;28;20033;-85
2022/05/29 02:28:21;;;;;;;6.03;3.63;;;5.60;99.90;;;;;;5030475;28;20564;-85
2022/05/29 02:30:56;;;;;;;6.00;3.20;;;5.40;99.90;;;;;;5036710;28;20570;-85
2022/05/29 02:33:25;;;;;;;4.78;3.22;;;5.60;99.90;;;;;;5044007;28;20124;-85
2022/05/29 02:36:19;;;;;;;6.18;3.55;;;5.70;99.90;;;;;;5043009;28;20033;-86
2022/05/29 02:39:23;;;;;;;8.40;3.40;;;5.70;99.90;;;;;;5041540;28;20068;-89
2022/05/29 02:42:02;;;;;;;5.07;3.03;;;5.80;99.90;;;;;;5036850;28;20488;-85
2022/05/29 02:44:31;;;;;;;8.55;3.80;;;5.80;99.90;;;;;;5034204;28;20029;-86
2022/05/29 02:47:23;;;;;;;5.32;3.30;;;5.90;99.90;;;;;;5034432;28;20396;-86
2022/05/29 02:50:11;;;;;;;5.65;3.78;;;6.00;99.90;;;;;;5032176;28;20760;-88
2022/05/29 02:52:38;;;;;;;6.15;3.53;;;6.00;99.90;;;;;;5030777;28;20068;-86
2022/05/29 02:55:04;;;;;;;9.00;4.45;;;6.00;99.90;;;;;;5015581;28;20039;-86
2022/05/29 02:57:29;;;;;;;6.97;3.60;;;6.10;99.90;;;;;;5030006;28;20026;-86
2022/05/29 03:00:02;;;;;;;4.93;3.30;;;5.90;99.90;;;;;;5036808;28;20060;-86
2022/05/29 03:02:48;;;;;;;3.92;2.80;;;5.90;99.90;;;;;;5039042;27;20544;-85
2022/05/29 03:05:20;;;;;;;6.15;3.08;;;5.80;99.90;;;;;;5039267;28;20028;-85
2022/05/29 03:08:23;;;;;;;5.43;3.83;;;5.70;99.90;;;;;;5041145;28;20022;-86
2022/05/29 03:11:15;;;;;;;5.45;3.45;;;5.70;99.90;;;;;;5038143;28;20497;-85
2022/05/29 03:14:09;;;;;;;7.45;3.67;;;5.60;99.90;;;;;;5013827;28;20049;-85
2022/05/29 03:16:53;;;;;;;4.45;3.30;;;5.60;99.90;;;;;;5012826;28;20037;-85
2022/05/29 03:19:25;;;;;;;8.13;3.60;;;5.50;99.90;;;;;;5036028;28;20040;-85
2022/05/29 03:22:11;;;;;;;8.20;4.30;;;5.40;99.90;;;;;;5037058;28;20062;-85
2022/05/29 03:25:04;;;;;;;5.28;3.33;;;5.40;99.90;;;;;;5046236;28;20570;-86
2022/05/29 03:27:39;;;;;;;7.20;3.08;;;5.40;99.90;;;;;;5026535;28;20116;-87
2022/05/29 03:30:26;;;;;;;6.18;3.50;;;5.40;99.90;;;;;;5035991;28;20029;-86
2022/05/29 03:32:58;;;;;;;8.55;3.22;;;5.40;99.90;;;;;;5039499;28;20037;-86
2022/05/29 03:35:24;;;;;;;4.63;3.42;;;5.30;99.90;;;;;;5040273;28;20036;-85
2022/05/29 03:37:50;;;;;;;5.65;3.33;;;5.30;99.90;;;;;;5042174;28;20029;-86
2022/05/29 03:40:16;;;;;;;4.38;2.85;;;5.30;99.90;;;;;;5041023;28;20438;-85
2022/05/29 03:42:42;;;;;;;4.95;2.97;;;5.30;99.90;;;;;;5033272;28;20037;-86
2022/05/29 03:45:09;;;;;;;4.07;3.08;;;5.30;99.90;;;;;;5036194;28;20029;-86
2022/05/29 03:47:36;;;;;;;4.35;3.28;;;5.20;99.90;;;;;;5036780;28;20033;-85
2022/05/29 03:50:04;;;;;;;5.80;3.10;;;5.20;99.90;;;;;;5032630;28;20527;-84
2022/05/29 03:52:31;;;;;;;4.82;2.80;;;5.20;99.90;;;;;;5033433;28;20552;-84
2022/05/29 03:54:57;;;;;;;4.03;3.40;;;5.30;99.90;;;;;;5016635;28;20460;-85
2022/05/29 03:57:23;;;;;;;4.65;3.10;;;5.30;99.90;;;;;;5032091;28;20226;-85
2022/05/29 03:59:49;;;;;;;7.05;3.40;;;5.40;99.90;;;;;;5035770;28;20802;-85
2022/05/29 04:02:15;;;;;;;14.75;5.35;;;5.50;99.90;;;;;;5039413;28;20029;-85
2022/05/29 04:04:41;;;;;;;6.78;3.17;;;5.60;99.90;;;;;;5035868;28;20393;-85
2022/05/29 04:07:07;;;;;;;7.93;3.17;;;5.80;99.90;;;;;;5034455;28;20074;-85
2022/05/29 04:12:18;;;;;;;3.72;2.63;;;6.10;99.90;;;;;;5034920;28;20516;-85
2022/05/29 04:14:44;;;;;;;7.70;3.70;;;6.20;99.90;;;;;;5035608;28;20104;-85
2022/05/29 04:17:13;;;;;;;7.55;2.90;;;6.30;99.90;;;;;;5037100;28;20460;-85
2022/05/29 04:19:39;;;;;;;7.55;3.28;;;6.40;99.90;;;;;;5028704;28;20045;-85
2022/05/29 04:22:09;;;;;;;3.00;2.35;;;6.50;99.90;;;;;;5032022;28;20026;-84
2022/05/29 04:24:36;;;;;;;4.20;2.80;;;6.60;99.90;;;;;;5030153;28;20026;-84
2022/05/29 04:27:02;;;;;;;3.33;2.63;;;6.70;99.90;;;;;;5027705;28;20084;-85
2022/05/29 04:29:27;;;;;;;3.88;2.90;;;6.90;99.90;;;;;;5028024;28;20038;-84
2022/05/29 04:34:37;;;;;;;5.03;2.58;;;7.10;99.90;;;;;;5039138;28;20507;-85
2022/05/29 04:37:04;;;;;;;4.47;2.70;;;7.20;99.90;;;;;;5039718;28;20041;-84
2022/05/29 04:39:35;;;;;;;4.03;2.50;;;7.40;99.90;;;;;;5035716;28;20025;-84
2022/05/29 04:42:00;;;;;;;;;;;7.60;99.90;;;;;;5039122;28;20025;-84
2022/05/29 04:44:29;;;;;;;6.78;3.45;;;7.60;99.90;;;;;;5036166;28;20291;-84
2022/05/29 04:46:57;;;;;;;5.70;2.83;;;7.60;99.90;;;;;;5038466;28;20032;-83
2022/05/29 04:49:22;;;;;;;3.97;2.83;;;7.70;99.90;;;;;;5034459;28;20017;-85
2022/05/29 04:51:48;;;;;;;5.80;2.42;;;7.70;99.90;;;;;;5019316;28;20025;-84
2022/05/29 04:54:14;;;;;;;4.25;2.65;;;7.80;99.90;;;;;;5030841;28;20124;-84
2022/05/29 04:56:39;;;;;;;4.50;2.40;;;7.90;99.90;;;;;;5032061;28;20073;-87
2022/05/29 04:59:05;;;;;;;5.38;3.00;;;8.00;99.90;;;;;;5028380;28;20120;-82
2022/05/29 05:01:31;;;;;;;3.00;2.50;;;8.00;99.90;;;;;;5043421;28;20037;-83
2022/05/29 05:03:57;;;;;;;4.15;2.95;;;8.20;99.90;;;;;;5044907;28;20182;-83
2022/05/29 05:06:22;;;;;;;5.20;2.45;;;8.30;99.80;;;;;;5060556;28;20941;-83
2022/05/29 05:08:48;;;;;;;8.52;2.47;;;8.30;99.10;;;;;;5042793;28;21473;-85
2022/05/29 05:11:14;;;;;;;4.53;2.47;;;8.50;99.20;;;;;;5039022;28;20038;-83
2022/05/29 05:13:39;;;;;;;3.75;2.33;;;8.50;99.00;;;;;;5040587;28;20037;-83
2022/05/29 05:16:05;;;;;;;4.85;2.92;;;8.40;98.70;;;;;;5038181;28;20040;-83
2022/05/29 05:18:31;;;;;;;6.70;2.75;;;8.40;99.90;;;;;;5036960;28;20492;-83
2022/05/29 05:20:57;;;;;;;4.28;2.63;;;8.50;99.70;;;;;;5037774;28;20025;-85
2022/05/29 05:23:23;;;;;;;3.92;2.60;;;8.60;99.90;;;;;;5030868;28;20035;-83
2022/05/29 05:25:48;;;;;;;6.10;3.13;;;8.80;99.90;;;;;;5036499;28;20053;-83
2022/05/29 05:28:14;;;;;;;5.30;3.22;;;8.80;99.50;;;;;;5029896;28;20084;-84
2022/05/29 05:30:40;;;;;;;5.18;2.67;;;9.00;98.20;;;;;;5032943;28;20064;-85
2022/05/29 05:33:05;;;;;;;5.82;3.38;;;8.90;98.40;;;;;;5045274;28;20029;-84
2022/05/29 05:35:31;;;;;;;6.03;2.65;;;8.90;99.90;;;;;;5041544;28;20036;-84
2022/05/29 05:37:57;;;;;;;5.03;3.05;;;8.90;99.90;;;;;;5044387;28;20032;-84
2022/05/29 05:40:23;;;;;;;3.72;2.85;;;9.00;96.10;;;;;;5041227;28;20056;-84
2022/05/29 05:42:48;;;;;;;3.85;2.70;;;9.10;98.00;;;;;;5024160;28;20120;-85
2022/05/29 05:45:14;;;;;;;3.53;2.42;;;9.20;98.60;;;;;;5040354;28;20021;-84
2022/05/29 05:47:40;;;;;;;4.30;3.17;;;9.20;96.40;;;;;;5039278;28;20079;-84
2022/05/29 05:50:09;;;;;;;4.03;2.75;;;9.20;97.80;;;;;;5035646;28;20408;-83
2022/05/29 05:52:35;;;;;;;3.10;2.65;;;9.30;96.20;;;;;;5028204;28;20485;-84
2022/05/29 05:55:04;;;;;;;4.03;2.85;;;9.30;97.40;;;;;;5032568;28;20056;-83
2022/05/29 05:57:30;;;;;;;5.30;2.60;;;9.40;95.70;;;;;;5033590;28;20044;-82
2022/05/29 05:59:55;;;;;;;5.65;3.08;;;9.30;93.80;;;;;;5068600;28;20066;-84
2022/05/29 06:02:23;;;;;;;4.82;2.90;;;9.40;95.00;;;;;;5043787;28;20533;-84
2022/05/29 06:04:49;;;;;;;5.47;2.72;;;9.50;93.70;;;;;;5046774;28;20026;-84
2022/05/29 06:07:15;;;;;;;4.22;3.00;;;9.60;97.30;;;;;;5033386;28;20033;-84
2022/05/29 06:09:41;;;;;;;4.97;3.22;;;9.60;94.10;;;;;;5042295;28;20088;-83
2022/05/29 06:12:07;;;;;;;7.75;3.28;;;9.70;94.80;;;;;;5042044;28;20373;-84
2022/05/29 06:14:34;;;;;;;7.78;3.13;;;9.70;93.70;;;;;;5040217;28;20038;-84
2022/05/29 06:17:01;;;;;;;3.63;2.55;;;9.70;93.90;;;;;;5039730;28;20053;-86
2022/05/29 06:19:27;;;;;;;4.47;2.92;;;9.80;95.30;;;;;;5034963;28;20284;-85
2022/05/29 06:21:52;;;;;;;4.63;3.67;;;9.90;96.90;;;;;;5035360;28;20506;-85
2022/05/29 06:24:18;;;;;;;3.65;3.00;;;10.00;94.90;;;;;;5012394;28;20029;-85
2022/05/29 06:26:44;;;;;;;11.90;4.03;;;10.00;96.00;;;;;;5017377;28;20047;-85
2022/05/29 06:29:09;;;;;;;5.65;3.00;;;9.90;94.50;;;;;;5029669;28;20040;-85
2022/05/29 06:31:35;;;;;;;7.85;3.75;;;10.10;95.20;;;;;;5033460;28;20624;-84
2022/05/29 06:34:01;;;;;;;4.90;3.13;;;10.30;95.60;;;;;;5043335;28;20033;-84
2022/05/29 06:36:27;;;;;;;6.35;3.20;;;10.30;95.00;;;;;;5041784;28;20029;-83
2022/05/29 06:38:55;;;;;;;5.97;3.22;;;10.50;94.80;;;;;;5039505;28;20436;-84
2022/05/29 06:41:23;;;;;;;5.30;3.05;;;10.50;95.80;;;;;;5034947;28;20079;-84
2022/05/29 06:43:52;;;;;;;4.00;2.60;;;10.60;94.90;;;;;;5031017;28;20013;-84
2022/05/29 06:46:19;;;;;;;3.88;3.03;;;10.60;95.80;;;;;;5035217;28;20499;-85
2022/05/29 06:48:45;;;;;;;5.45;3.47;;;10.70;93.20;;;;;;5031453;28;20053;-85
2022/05/29 06:51:19;;;;;;;3.55;3.20;;;10.70;93.60;;;;;;5028000;28;20698;-87
2022/05/29 06:53:45;;;;;;;5.88;4.07;;;11.10;94.40;;;;;;5029322;28;20048;-84
2022/05/29 06:56:12;;;;;;;4.57;3.70;;;11.40;92.60;;;;;;5027845;28;20083;-83
2022/05/29 06:58:38;;;;;;;4.57;3.17;;;11.50;90.70;;;;;;5030207;28;20049;-83
2022/05/29 07:09:25;;;;;;;5.20;3.13;;;12.60;80.70;;;;;;5033564;28;20052;-83
2022/05/29 07:12:17;;;;;;;5.60;3.65;;;12.20;85.70;;;;;;5031909;28;20037;-83
2022/05/29 07:14:48;;;;;;;4.43;2.83;;;12.20;81.60;;;;;;5028566;28;20072;-83
2022/05/29 07:17:13;;;;;;;4.18;2.72;;;12.20;84.90;;;;;;5027895;28;20009;-83
2022/05/29 07:19:41;;;;;;;5.03;3.35;;;12.40;85.10;;;;;;5033932;28;20032;-83
2022/05/29 07:22:07;;;;;;;6.47;2.95;;;12.30;85.70;;;;;;5029811;28;20029;-84
2022/05/29 07:24:35;;;;;;;3.95;2.85;;;12.10;86.90;;;;;;5029725;28;20041;-83
2022/05/29 07:27:01;;;;;;;4.50;3.00;;;11.80;82.90;;;;;;5022535;28;20404;-82
2022/05/29 07:29:27;;;;;;;3.55;2.58;;;11.80;84.20;;;;;;5036363;28;20025;-83
2022/05/29 07:31:54;;;;;;;8.73;3.08;;;11.70;84.00;;;;;;5024315;28;20049;-84
2022/05/29 07:34:21;;;;;;;3.80;2.92;;;11.70;90.00;;;;;;5034765;28;20030;-83
2022/05/29 07:36:49;;;;;;;4.65;2.45;;;12.10;85.20;;;;;;5037668;28;20112;-84
2022/05/29 07:39:15;;;;;;;7.38;2.72;;;12.30;87.80;;;;;;5038347;28;20033;-84
2022/05/29 07:44:25;;;;;;;4.75;2.70;;;12.50;78.00;;;;;;5035234;28;20044;-84
2022/05/29 07:46:51;;;;;;;5.38;2.55;;;12.80;83.70;;;;;;5041459;28;20423;-84
2022/05/29 07:49:16;;;;;;;4.60;2.63;;;12.80;77.80;;;;;;5030368;28;20041;-83
2022/05/29 07:51:42;;;;;;;2.72;2.05;;;13.00;78.90;;;;;;5036436;28;20120;-84
2022/05/29 07:54:08;;;;;;;3.13;2.47;;;13.20;74.70;;;;;;5029433;28;20091;-85
2022/05/29 07:56:33;;;;;;;5.57;2.38;;;13.10;72.20;;;;;;5032202;28;20817;-84
2022/05/29 07:58:59;;;;;;;5.85;2.28;;;13.10;76.50;;;;;;5033027;28;20052;-82
2022/05/29 08:01:25;;;;;;;3.53;2.30;;;13.50;75.90;;;;;;5024185;28;20037;-82
2022/05/29 08:03:50;;;;;;;5.47;2.40;;;13.90;74.50;;;;;;5039172;28;20536;-83
2022/05/29 08:06:17;;;;;;;4.55;2.28;;;13.80;72.30;;;;;;5018293;28;20037;-82
2022/05/29 08:08:43;;;;;;;5.18;2.65;;;13.90;74.70;;;;;;5023081;28;20735;-84
2022/05/29 08:11:08;;;;;;;4.00;2.35;;;13.80;68.90;;;;;;5029427;28;20029;-83
2022/05/29 08:13:35;;;;;;;3.42;2.20;;;13.80;73.30;;;;;;5021263;28;20567;-87
2022/05/29 08:16:02;;;;;;;4.50;2.63;;;13.80;69.40;;;;;;5023775;28;20512;-83
2022/05/29 08:18:28;;;;;;;4.78;2.38;;;13.70;68.30;;;;;;5029323;28;20041;-85
2022/05/29 08:20:55;;;;;;;2.45;2.13;;;13.70;66.70;;;;;;5015245;28;20029;-86
2022/05/29 08:23:21;;;;;;;3.00;2.00;;;13.50;68.40;;;;;;5035576;28;20029;-86
2022/05/29 08:31:13;;;;;;;3.33;2.00;;;13.90;72.20;;;;;;5032400;28;20038;-81
2022/05/29 08:33:39;;;;;;;4.15;2.40;;;14.20;66.70;;;;;;5033648;28;20516;-80
2022/05/29 08:36:11;;;;;;;3.30;2.20;;;14.40;67.10;;;;;;5040606;28;20036;-80
2022/05/29 08:38:41;;;;;;;4.78;2.17;;;14.30;67.40;;;;;;5070545;28;20029;-80
2022/05/29 08:41:17;;;;;;;5.97;2.13;;;14.70;73.00;;;;;;5042944;28;20183;-81
2022/05/29 08:44:04;;;;;;;3.40;2.35;;;14.40;65.20;;;;;;5028890;28;20368;-82
2022/05/29 08:46:42;;;;;;;4.30;2.10;;;14.60;65.40;;;;;;5026771;28;20645;-82
2022/05/29 08:49:11;;;;;;;3.03;2.35;;;14.60;65.20;;;;;;5026602;28;20095;-81
2022/05/29 08:51:55;;;;;;;6.10;2.17;;;15.00;63.70;;;;;;5024528;28;20504;-81
2022/05/29 08:54:33;;;;;;;4.32;2.50;;;15.20;62.10;;;;;;5025519;28;20132;-80
2022/05/29 08:57:33;;;;;;;4.25;2.92;;;14.90;62.00;;;;;;5023641;28;20045;-80
2022/05/29 09:00:00;;;;;;;4.45;2.65;;;15.00;63.20;;;;;;5024882;28;20354;-80
2022/05/29 09:02:48;;;;;;;4.65;2.35;;;15.40;60.70;;;;;;5022391;28;20047;-80
2022/05/29 09:05:34;;;;;;;5.13;2.53;;;15.80;63.00;;;;;;5024423;28;20029;-79
2022/05/29 09:08:21;;;;;;;3.80;2.17;;;15.70;63.10;;;;;;5023146;28;20037;-81
2022/05/29 09:10:51;;;;;;;6.25;2.78;;;15.70;59.90;;;;;;5027732;28;20025;-82
2022/05/29 09:13:29;;;;;;;5.22;2.20;;;15.90;59.40;;;;;;5024495;28;20049;-80
2022/05/29 09:16:02;;;;;;;4.35;2.65;;;16.30;60.00;;;;;;5025519;28;20036;-81
2022/05/29 09:18:38;;;;;;;4.03;2.38;;;16.20;54.80;;;;;;5025732;28;20112;-80
2022/05/29 09:21:22;;;;;;;3.00;2.10;;;16.40;60.50;;;;;;5026185;28;20801;-81
2022/05/29 09:23:53;;;;;;;6.72;3.13;;;16.40;56.10;;;;;;5023985;28;20022;-80
2022/05/29 09:26:19;;;;;;;3.70;2.10;;;16.40;56.80;;;;;;5020311;28;20026;-80
2022/05/29 09:28:46;;;;;;;2.58;2.17;;;16.90;56.20;;;;;;5022316;28;20037;-81
2022/05/29 09:31:20;;;;;;;3.13;2.20;;;17.00;53.60;;;;;;5018774;28;20042;-79
2022/05/29 09:33:46;;;;;;;5.32;1.90;;;17.30;54.50;;;;;;5022261;28;20436;-79
2022/05/29 09:36:23;;;;;;;4.53;2.53;;;17.30;55.20;;;;;;5021019;28;20164;-80
2022/05/29 09:39:12;;;;;;;4.00;2.30;;;17.10;55.50;;;;;;5019906;28;20037;-81
2022/05/29 09:41:45;;;;;;;2.72;2.13;;;17.10;50.80;;;;;;5010463;28;20034;-79
2022/05/29 09:44:14;;;;;;;8.30;2.95;;;18.50;50.50;;;;;;5055219;28;20033;-81
2022/05/29 09:46:45;;;;;;;4.40;2.03;;;18.70;54.10;;;;;;5022615;28;20060;-80
2022/05/29 09:49:42;;;;;;;3.15;2.35;;;18.10;47.80;;;;;;5021455;28;20040;-80
2022/05/29 09:52:22;;;;;;;2.90;1.83;;;17.40;50.10;;;;;;5024861;28;20159;-81
2022/05/29 09:55:17;;;;;;;4.07;1.95;;;17.30;50.60;;;;;;5023653;28;20112;-83
2022/05/29 09:57:49;;;;;;;4.28;3.00;;;16.60;52.70;;;;;;5022165;28;20381;-82
2022/05/29 10:00:40;;;;;;;4.05;3.08;;;15.70;54.40;;;;;;5054367;28;20052;-82
2022/05/29 10:03:31;;;;;;;5.05;2.67;;;15.60;57.40;;;;;;5025678;28;20104;-83
2022/05/29 10:06:16;;;;;;;5.32;2.28;;;14.70;58.50;;;;;;5021917;28;20107;-83
2022/05/29 10:08:43;;;;;;;4.15;2.10;;;14.30;58.90;;;;;;5023381;28;20043;-82
2022/05/29 10:11:12;;;;;;;3.80;2.50;;;14.50;60.20;;;;;;5023095;28;20044;-82
2022/05/29 10:13:42;;;;;;;3.28;2.40;;;14.40;58.00;;;;;;5023216;28;20583;-82
2022/05/29 10:16:09;;;;;;;3.60;2.03;;;14.10;62.00;;;;;;5024879;28;20192;-82
2022/05/29 10:18:37;;;;;;;3.10;2.00;;;13.90;60.50;;;;;;5025997;28;20041;-82
2022/05/29 10:21:27;;;;;;;3.13;1.90;;;14.00;61.40;;;;;;5023083;28;20037;-82
2022/05/29 10:24:11;;;;;;;2.55;1.80;;;13.00;62.60;;;;;;5024133;28;20052;-83
2022/05/29 10:26:37;;;;;;;5.03;1.75;;;12.00;67.30;;;;;;5024575;28;20183;-84
2022/05/29 10:29:27;;;;;;;1.40;1.17;;;10.60;78.30;;;;;;5024308;28;20029;-82
2022/05/29 10:31:54;;;;;;;3.28;1.52;;;10.00;89.40;;;;;;5021696;28;20191;-84
2022/05/29 10:34:32;;;;;;;2.25;1.80;;;9.80;92.20;;;;;;5023639;28;20073;-86
2022/05/29 10:36:59;;;;;;;2.35;1.40;;;9.40;96.10;;;;;;5022007;28;20034;-88
2022/05/29 10:39:31;;;;;;;2.53;1.77;;;9.10;99.60;;;;;;5003885;28;20096;-83
2022/05/29 10:41:58;;;;;;;2.30;1.80;;;8.70;99.90;;;;;;5022229;28;20033;-87
2022/05/29 10:44:42;;;;;;;2.15;1.40;;;8.50;99.90;;;;;;5025074;28;20033;-86
2022/05/29 10:47:50;;;;;;;4.15;2.58;;;8.20;99.90;;;;;;5025148;28;20040;-85
2022/05/29 10:50:25;;;;;;;4.72;2.45;;;8.00;99.90;;;;;;4965972;28;20134;-86
2022/05/29 10:53:06;;;;;;;2.90;2.35;;;7.70;99.90;;;;;;5023134;28;20460;-85
2022/05/29 10:56:04;;;;;;;3.05;1.90;;;7.70;99.90;;;;;;5024103;28;20035;-87
2022/05/29 10:58:32;;;;;;;4.07;2.47;;;7.40;99.90;;;;;;5023069;28;20045;-87
2022/05/29 11:04:16;;;;;;;4.72;1.65;;;7.10;99.90;;;;;;5023055;28;20167;-87
2022/05/29 11:07:26;;;;;;;3.00;1.70;;;7.00;99.90;;;;;;5021497;28;20040;-86
2022/05/29 11:10:07;;;;;;;3.25;1.88;;;7.00;99.90;;;;;;5022745;28;20029;-87
2022/05/29 11:13:11;;;;;;;5.63;2.45;;;6.80;99.90;;;;;;5019126;28;20044;-87
2022/05/29 11:15:51;;;;;;;6.03;3.05;;;6.80;99.90;;;;;;4976774;28;20113;-87
2022/05/29 11:18:43;;;;;;;3.92;2.13;;;6.70;99.90;;;;;;5019268;28;20038;-86
2022/05/29 11:21:30;;;;;;;17.30;2.25;;;6.70;99.90;;;;;;5017464;28;20574;-84
2022/05/29 11:24:09;;;;;;;5.93;3.20;;;6.90;99.90;;;;;;5020649;28;20056;-85
2022/05/29 11:27:11;;;;;;;4.60;2.90;;;6.90;99.90;;;;;;5022405;28;20500;-85
2022/05/29 11:29:52;;;;;;;7.15;2.83;;;6.90;99.90;;;;;;5022358;28;20033;-83
2022/05/29 11:32:33;;;;;;;;;;;7.00;99.90;;;;;;5021361;28;20131;-86
2022/05/29 11:35:08;;;;;;;14.48;3.50;;;7.30;99.90;;;;;;5023003;28;19924;-85
2022/05/29 11:37:40;;;;;;;6.65;3.38;;;7.40;99.90;;;;;;5022075;28;20032;-84
2022/05/29 11:40:29;;;;;;;4.90;2.75;;;7.60;99.90;;;;;;5021244;28;20074;-88
2022/05/29 11:43:00;;;;;;;4.03;2.38;;;7.70;99.90;;;;;;5020755;28;20022;-83
2022/05/29 11:51:25;;;;;;;3.28;2.35;;;7.70;99.90;;;;;;5017559;28;20083;-83
2022/05/29 11:54:13;;;;;;;5.90;2.13;;;7.70;99.90;;;;;;5019738;28;20025;-83
2022/05/29 11:56:54;;;;;;;1.88;1.50;;;8.00;99.90;;;;;;5019081;28;20156;-83
2022/05/29 11:59:19;;;;;;;3.83;1.80;;;8.10;99.90;;;;;;5020910;28;20049;-84
2022/05/29 12:02:01;;;;;;;2.20;1.40;;;8.00;99.90;;;;;;5017170;28;20061;-82
2022/05/29 12:04:55;;;;;;;5.70;2.00;;;8.20;99.90;;;;;;5017548;28;20047;-85
2022/05/29 12:07:33;;;;;;;4.45;2.13;;;8.30;99.90;;;;;;5011431;28;20037;-82
2022/05/29 12:10:06;;;;;;;1.98;1.30;;;8.70;99.90;;;;;;5022330;28;20766;-82
2022/05/29 12:12:41;;;;;;;4.68;1.33;;;9.00;99.90;;;;;;5022319;28;20500;-83
2022/05/29 12:15:12;;;;;;;2.75;1.52;;;9.30;99.90;;;;;;5020962;28;20076;-82
2022/05/29 12:17:44;;;;;;;2.72;1.73;;;9.60;99.90;;;;;;5021520;28;20033;-81
2022/05/29 12:20:42;;;;;;;2.05;1.70;;;9.50;99.90;;;;;;5021462;28;20115;-80
2022/05/29 12:23:19;;;;;;;2.63;2.05;;;9.50;99.90;;;;;;5018575;28;20120;-82
2022/05/29 12:25:54;;;;;;;2.50;1.83;;;9.90;99.90;;;;;;5022859;28;20026;-81
2022/05/29 12:28:37;;;;;;;3.75;2.15;;;10.20;99.90;;;;;;5020585;28;20063;-81
2022/05/29 12:31:05;;;;;;;4.75;2.08;;;10.50;99.90;;;;;;5024360;28;20084;-83
2022/05/29 12:33:31;;;;;;;2.58;1.85;;;11.30;99.90;;;;;;5022331;28;20049;-85
2022/05/29 12:36:08;;;;;;;3.10;1.92;;;11.70;99.90;;;;;;5022806;28;20724;-85
2022/05/29 12:38:49;;;;;;;3.90;1.98;;;12.80;99.90;;;;;;5022536;28;20049;-84
2022/05/29 12:41:27;;;;;;;;;;;12.80;99.90;;;;;;5022873;28;20108;-83
2022/05/29 12:44:23;;;;;;;6.28;2.08;;;12.20;99.90;;;;;;5021562;28;20018;-84
2022/05/29 12:47:16;;;;;;;3.10;2.00;;;12.30;99.90;;;;;;5021280;28;20021;-86
2022/05/29 12:50:00;;;;;;;2.40;2.17;;;12.40;99.90;;;;;;5022946;28;20099;-85
2022/05/29 12:52:39;;;;;;;2.45;2.00;;;12.50;99.90;;;;;;5022318;28;20602;-84
2022/05/29 12:55:16;;;;;;;1.52;1.42;;;12.60;99.90;;;;;;5023123;28;20504;-85
2022/05/29 12:58:07;;;;;;;3.55;2.00;;;12.20;98.50;;;;;;5022177;28;20036;-86
2022/05/29 13:00:41;;;;;;;3.53;1.48;;;12.20;99.90;;;;;;5020833;28;20053;-86
2022/05/29 13:03:07;;;;;;;1.83;1.20;;;12.50;99.90;;;;;;5026485;28;20037;-84
2022/05/29 13:06:04;;;;;;;4.22;1.35;;;12.60;90.80;;;;;;5026931;28;20522;-85
2022/05/29 13:09:08;;;;;;;1.83;1.30;;;12.90;99.90;;;;;;5025939;28;20025;-86
2022/05/29 13:11:38;;;;;;;1.58;1.10;;;13.30;99.90;;;;;;5024662;28;20116;-85
2022/05/29 13:14:07;;;;;;;2.17;1.38;;;13.90;99.90;;;;;;5027360;28;20726;-85
2022/05/29 13:16:41;;;;;;;1.90;1.30;;;13.60;99.70;;;;;;5024705;28;20033;-86
2022/05/29 13:19:21;;;;;;;1.10;1.00;;;15.90;76.80;;;;;;5007068;28;20037;-86
2022/05/29 13:22:07;;;;;;;2.05;1.30;;;17.70;79.10;;;;;;5026800;28;20122;-82
2022/05/29 13:24:39;;;;;;;2.28;1.35;;;18.30;78.20;;;;;;5027077;28;20078;-84
2022/05/29 13:27:16;;;;;;;1.40;1.17;;;18.50;61.60;;;;;;5029237;28;20029;-82
2022/05/29 13:29:50;;;;;;;1.92;1.23;;;19.40;59.20;;;;;;5026578;28;20029;-81
2022/05/29 13:32:19;;;;;;;1.50;1.20;;;18.80;59.30;;;;;;5027155;28;20143;-83
2022/05/29 13:35:12;;;;;;;1.95;1.10;;;20.60;52.50;;;;;;5027548;28;20037;-81
2022/05/29 13:37:47;;;;;;;1.00;1.00;;;20.60;49.60;;;;;;5027619;28;20045;-81
2022/05/29 13:40:40;;;;;;;1.63;1.35;;;18.90;52.30;;;;;;5026497;28;20887;-82
2022/05/29 13:43:15;;;;;;;1.90;1.30;;;17.30;55.00;;;;;;5027679;28;20021;-85
2022/05/29 13:45:44;;;;;;;3.15;1.60;;;16.50;57.50;;;;;;5026758;28;20060;-86
2022/05/29 13:48:24;;;;;;;3.15;1.23;;;16.60;61.70;;;;;;5026784;28;20051;-85
2022/05/29 13:50:55;;;;;;;;;;;17.00;59.50;;;;;;5027784;28;20049;-85
2022/05/29 13:53:23;;;;;;;;;;;17.10;60.30;;;;;;5027606;28;19917;-84
2022/05/29 13:55:57;;;;;;;1.40;1.20;;;16.70;59.80;;;;;;5060763;28;20745;-85
2022/05/29 14:04:42;;;;;;;3.20;1.33;;;17.60;60.00;;;;;;5027889;28;20036;-92
2022/05/29 14:07:13;;;;;;;3.72;1.30;;;16.80;57.70;;;;;;5027601;28;20022;-82
2022/05/29 14:10:17;;;;;;;5.68;1.92;;;17.10;58.80;;;;;;5027324;28;20052;-83